sensor_id;sensor_type;location;lat;lon;timestamp;temperature;humidity
9837;DHT22;4957;51.412;6.724;2023-05-07T00:02:21;18.40;94.90
9837;DHT22;4957;51.412;6.724;2023-05-07T00:04:48;18.40;95.00
9837;DHT22;4957;51.412;6.724;2023-05-07T00:07:14;18.40;95.10
9837;DHT22;4957;51.412;6.724;2023-05-07T00:09:40;18.40;95.20
9837;DHT22;4957;51.412;6.724;2023-05-07T00:12:07;18.40;95.20
9837;DHT22;4957;51.412;6.724;2023-05-07T00:14:33;18.30;95.20
9837;DHT22;4957;51.412;6.724;2023-05-07T00:16:58;18.30;95.40
9837;DHT22;4957;51.412;6.724;2023-05-07T00:19:24;18.30;95.20
9837;DHT22;4957;51.412;6.724;2023-05-07T00:21:50;18.30;95.30
9837;DHT22;4957;51.412;6.724;2023-05-07T00:24:15;18.30;95.50
9837;DHT22;4957;51.412;6.724;2023-05-07T00:26:41;18.30;95.50
9837;DHT22;4957;51.412;6.724;2023-05-07T00:29:07;18.30;95.40
9837;DHT22;4957;51.412;6.724;2023-05-07T00:31:32;18.20;95.50
9837;DHT22;4957;51.412;6.724;2023-05-07T00:33:58;18.20;95.40
9837;DHT22;4957;51.412;6.724;2023-05-07T00:36:24;18.20;95.50
9837;DHT22;4957;51.412;6.724;2023-05-07T00:38:50;18.20;95.60
9837;DHT22;4957;51.412;6.724;2023-05-07T00:41:16;18.10;95.60
9837;DHT22;4957;51.412;6.724;2023-05-07T00:43:42;18.10;95.60
9837;DHT22;4957;51.412;6.724;2023-05-07T00:46:07;18.20;95.70
9837;DHT22;4957;51.412;6.724;2023-05-07T00:48:33;18.10;95.60
9837;DHT22;4957;51.412;6.724;2023-05-07T00:50:59;18.10;95.60
9837;DHT22;4957;51.412;6.724;2023-05-07T00:53:24;18.10;95.70
9837;DHT22;4957;51.412;6.724;2023-05-07T00:55:50;18.10;95.80
9837;DHT22;4957;51.412;6.724;2023-05-07T00:58:16;18.10;95.60
9837;DHT22;4957;51.412;6.724;2023-05-07T01:00:42;18.10;95.70
9837;DHT22;4957;51.412;6.724;2023-05-07T01:03:08;18.10;95.70
9837;DHT22;4957;51.412;6.724;2023-05-07T01:05:34;18.00;95.60
9837;DHT22;4957;51.412;6.724;2023-05-07T01:08:01;18.00;95.50
9837;DHT22;4957;51.412;6.724;2023-05-07T01:10:28;18.00;95.50
9837;DHT22;4957;51.412;6.724;2023-05-07T01:12:57;17.90;95.40
9837;DHT22;4957;51.412;6.724;2023-05-07T01:15:23;17.90;95.50
9837;DHT22;4957;51.412;6.724;2023-05-07T01:17:49;17.90;95.50
9837;DHT22;4957;51.412;6.724;2023-05-07T01:20:14;17.90;95.60
9837;DHT22;4957;51.412;6.724;2023-05-07T01:22:42;17.80;95.50
9837;DHT22;4957;51.412;6.724;2023-05-07T01:25:08;17.80;95.50
9837;DHT22;4957;51.412;6.724;2023-05-07T01:27:35;17.80;95.30
9837;DHT22;4957;51.412;6.724;2023-05-07T01:30:03;17.80;95.40
9837;DHT22;4957;51.412;6.724;2023-05-07T01:33:02;17.70;95.30
9837;DHT22;4957;51.412;6.724;2023-05-07T01:35:34;17.70;95.80
9837;DHT22;4957;51.412;6.724;2023-05-07T01:38:02;17.70;95.50
9837;DHT22;4957;51.412;6.724;2023-05-07T01:40:30;17.70;95.50
9837;DHT22;4957;51.412;6.724;2023-05-07T01:42:55;17.60;95.60
9837;DHT22;4957;51.412;6.724;2023-05-07T01:45:21;17.60;95.50
9837;DHT22;4957;51.412;6.724;2023-05-07T01:47:48;17.60;95.60
9837;DHT22;4957;51.412;6.724;2023-05-07T01:50:16;17.60;95.60
9837;DHT22;4957;51.412;6.724;2023-05-07T01:52:44;17.50;95.60
9837;DHT22;4957;51.412;6.724;2023-05-07T01:55:09;17.50;95.70
9837;DHT22;4957;51.412;6.724;2023-05-07T01:57:35;17.50;95.80
9837;DHT22;4957;51.412;6.724;2023-05-07T02:00:01;17.50;95.80
9837;DHT22;4957;51.412;6.724;2023-05-07T02:02:28;17.50;95.80
9837;DHT22;4957;51.412;6.724;2023-05-07T02:04:54;17.50;95.80
9837;DHT22;4957;51.412;6.724;2023-05-07T02:07:19;17.40;95.80
9837;DHT22;4957;51.412;6.724;2023-05-07T02:09:45;17.40;95.80
9837;DHT22;4957;51.412;6.724;2023-05-07T02:12:11;17.40;95.80
9837;DHT22;4957;51.412;6.724;2023-05-07T02:14:36;17.40;95.80
9837;DHT22;4957;51.412;6.724;2023-05-07T02:17:02;17.30;96.00
9837;DHT22;4957;51.412;6.724;2023-05-07T02:19:27;17.30;96.00
9837;DHT22;4957;51.412;6.724;2023-05-07T02:21:53;17.30;96.00
9837;DHT22;4957;51.412;6.724;2023-05-07T02:24:19;17.30;96.10
9837;DHT22;4957;51.412;6.724;2023-05-07T02:26:45;17.30;96.20
9837;DHT22;4957;51.412;6.724;2023-05-07T02:29:11;17.30;96.10
9837;DHT22;4957;51.412;6.724;2023-05-07T02:31:36;17.20;96.10
9837;DHT22;4957;51.412;6.724;2023-05-07T02:34:02;17.20;96.30
9837;DHT22;4957;51.412;6.724;2023-05-07T02:36:28;17.20;96.20
9837;DHT22;4957;51.412;6.724;2023-05-07T02:38:54;17.20;96.10
9837;DHT22;4957;51.412;6.724;2023-05-07T02:41:20;17.20;96.20
9837;DHT22;4957;51.412;6.724;2023-05-07T02:43:46;17.20;96.10
9837;DHT22;4957;51.412;6.724;2023-05-07T02:46:11;17.20;96.40
9837;DHT22;4957;51.412;6.724;2023-05-07T02:48:37;17.20;96.40
9837;DHT22;4957;51.412;6.724;2023-05-07T02:51:04;17.20;96.40
9837;DHT22;4957;51.412;6.724;2023-05-07T02:53:30;17.20;96.60
9837;DHT22;4957;51.412;6.724;2023-05-07T02:55:57;17.10;96.40
9837;DHT22;4957;51.412;6.724;2023-05-07T02:58:23;17.10;96.50
9837;DHT22;4957;51.412;6.724;2023-05-07T03:00:50;17.10;96.40
9837;DHT22;4957;51.412;6.724;2023-05-07T03:03:15;17.10;96.50
9837;DHT22;4957;51.412;6.724;2023-05-07T03:05:41;17.00;96.40
9837;DHT22;4957;51.412;6.724;2023-05-07T03:08:07;17.00;96.40
9837;DHT22;4957;51.412;6.724;2023-05-07T03:10:33;17.00;96.50
9837;DHT22;4957;51.412;6.724;2023-05-07T03:13:00;17.00;96.50
9837;DHT22;4957;51.412;6.724;2023-05-07T03:15:26;17.00;96.60
9837;DHT22;4957;51.412;6.724;2023-05-07T03:17:52;17.00;96.60
9837;DHT22;4957;51.412;6.724;2023-05-07T03:20:17;16.90;96.50
9837;DHT22;4957;51.412;6.724;2023-05-07T03:22:43;16.90;96.80
9837;DHT22;4957;51.412;6.724;2023-05-07T03:25:09;16.90;96.70
9837;DHT22;4957;51.412;6.724;2023-05-07T03:27:35;16.90;96.50
9837;DHT22;4957;51.412;6.724;2023-05-07T03:30:01;16.90;96.70
9837;DHT22;4957;51.412;6.724;2023-05-07T03:32:26;16.90;96.80
9837;DHT22;4957;51.412;6.724;2023-05-07T03:34:52;16.90;96.80
9837;DHT22;4957;51.412;6.724;2023-05-07T03:37:18;16.80;96.50
9837;DHT22;4957;51.412;6.724;2023-05-07T03:39:44;16.80;96.70
9837;DHT22;4957;51.412;6.724;2023-05-07T03:42:10;16.80;96.90
9837;DHT22;4957;51.412;6.724;2023-05-07T03:44:36;16.80;96.80
9837;DHT22;4957;51.412;6.724;2023-05-07T03:47:02;16.70;96.80
9837;DHT22;4957;51.412;6.724;2023-05-07T03:49:28;16.80;97.20
9837;DHT22;4957;51.412;6.724;2023-05-07T03:51:54;16.70;96.70
9837;DHT22;4957;51.412;6.724;2023-05-07T03:54:19;16.70;96.90
9837;DHT22;4957;51.412;6.724;2023-05-07T03:56:45;16.70;96.90
9837;DHT22;4957;51.412;6.724;2023-05-07T03:59:12;16.70;97.00
9837;DHT22;4957;51.412;6.724;2023-05-07T04:01:38;16.60;97.00
9837;DHT22;4957;51.412;6.724;2023-05-07T04:04:04;16.60;97.00
9837;DHT22;4957;51.412;6.724;2023-05-07T04:06:30;16.60;96.90
9837;DHT22;4957;51.412;6.724;2023-05-07T04:08:56;16.60;96.80
9837;DHT22;4957;51.412;6.724;2023-05-07T04:11:22;16.50;96.90
9837;DHT22;4957;51.412;6.724;2023-05-07T04:13:47;16.50;97.10
9837;DHT22;4957;51.412;6.724;2023-05-07T04:16:13;16.50;97.40
9837;DHT22;4957;51.412;6.724;2023-05-07T04:18:39;16.40;97.00
9837;DHT22;4957;51.412;6.724;2023-05-07T04:21:05;16.50;97.10
9837;DHT22;4957;51.412;6.724;2023-05-07T04:23:31;16.50;97.40
9837;DHT22;4957;51.412;6.724;2023-05-07T04:25:57;16.50;97.40
9837;DHT22;4957;51.412;6.724;2023-05-07T04:28:23;16.40;97.40
9837;DHT22;4957;51.412;6.724;2023-05-07T04:30:49;16.40;98.00
9837;DHT22;4957;51.412;6.724;2023-05-07T04:33:15;16.40;97.50
9837;DHT22;4957;51.412;6.724;2023-05-07T04:35:43;16.40;97.60
9837;DHT22;4957;51.412;6.724;2023-05-07T04:38:09;16.40;97.70
9837;DHT22;4957;51.412;6.724;2023-05-07T04:40:36;16.30;97.80
9837;DHT22;4957;51.412;6.724;2023-05-07T04:43:01;16.40;97.80
9837;DHT22;4957;51.412;6.724;2023-05-07T04:45:27;16.40;98.00
9837;DHT22;4957;51.412;6.724;2023-05-07T04:47:53;16.40;97.90
9837;DHT22;4957;51.412;6.724;2023-05-07T04:50:18;16.40;98.20
9837;DHT22;4957;51.412;6.724;2023-05-07T04:52:45;16.40;98.10
9837;DHT22;4957;51.412;6.724;2023-05-07T04:55:11;16.40;98.40
9837;DHT22;4957;51.412;6.724;2023-05-07T04:57:36;16.40;98.30
9837;DHT22;4957;51.412;6.724;2023-05-07T05:00:05;16.40;98.50
9837;DHT22;4957;51.412;6.724;2023-05-07T05:02:33;16.40;98.60
9837;DHT22;4957;51.412;6.724;2023-05-07T05:05:00;16.40;98.60
9837;DHT22;4957;51.412;6.724;2023-05-07T05:07:26;16.40;98.80
9837;DHT22;4957;51.412;6.724;2023-05-07T05:09:52;16.50;98.90
9837;DHT22;4957;51.412;6.724;2023-05-07T05:12:18;16.40;99.10
9837;DHT22;4957;51.412;6.724;2023-05-07T05:14:43;16.50;99.40
9837;DHT22;4957;51.412;6.724;2023-05-07T05:17:09;16.40;99.40
9837;DHT22;4957;51.412;6.724;2023-05-07T05:19:35;16.40;99.50
9837;DHT22;4957;51.412;6.724;2023-05-07T05:22:00;16.50;99.80
9837;DHT22;4957;51.412;6.724;2023-05-07T05:24:30;16.50;99.90
9837;DHT22;4957;51.412;6.724;2023-05-07T05:26:56;16.50;99.90
9837;DHT22;4957;51.412;6.724;2023-05-07T05:29:21;16.50;99.90
9837;DHT22;4957;51.412;6.724;2023-05-07T05:31:47;16.50;99.90
9837;DHT22;4957;51.412;6.724;2023-05-07T05:34:13;16.50;99.90
9837;DHT22;4957;51.412;6.724;2023-05-07T05:36:39;16.50;99.90
9837;DHT22;4957;51.412;6.724;2023-05-07T05:39:04;16.60;99.90
9837;DHT22;4957;51.412;6.724;2023-05-07T05:41:31;16.60;99.90
9837;DHT22;4957;51.412;6.724;2023-05-07T05:43:56;16.60;99.90
9837;DHT22;4957;51.412;6.724;2023-05-07T05:46:22;16.60;99.90
9837;DHT22;4957;51.412;6.724;2023-05-07T05:48:48;16.70;99.90
9837;DHT22;4957;51.412;6.724;2023-05-07T05:51:13;16.70;99.90
9837;DHT22;4957;51.412;6.724;2023-05-07T05:53:39;16.70;99.90
9837;DHT22;4957;51.412;6.724;2023-05-07T05:56:05;16.80;99.90
9837;DHT22;4957;51.412;6.724;2023-05-07T05:58:31;16.80;99.90
9837;DHT22;4957;51.412;6.724;2023-05-07T06:00:57;16.80;99.90
9837;DHT22;4957;51.412;6.724;2023-05-07T06:03:23;16.80;99.90
9837;DHT22;4957;51.412;6.724;2023-05-07T06:05:49;16.90;99.90
9837;DHT22;4957;51.412;6.724;2023-05-07T06:08:15;16.90;99.90
9837;DHT22;4957;51.412;6.724;2023-05-07T06:10:41;17.00;99.90
9837;DHT22;4957;51.412;6.724;2023-05-07T06:13:07;17.10;99.90
9837;DHT22;4957;51.412;6.724;2023-05-07T06:15:32;17.10;99.90
9837;DHT22;4957;51.412;6.724;2023-05-07T06:17:58;17.20;99.90
9837;DHT22;4957;51.412;6.724;2023-05-07T06:20:23;17.30;99.90
9837;DHT22;4957;51.412;6.724;2023-05-07T06:22:49;17.30;99.90
9837;DHT22;4957;51.412;6.724;2023-05-07T06:25:15;17.40;99.90
9837;DHT22;4957;51.412;6.724;2023-05-07T06:27:41;17.40;99.90
9837;DHT22;4957;51.412;6.724;2023-05-07T06:30:07;17.40;99.90
9837;DHT22;4957;51.412;6.724;2023-05-07T06:32:33;17.50;99.90
9837;DHT22;4957;51.412;6.724;2023-05-07T06:34:59;17.50;99.90
9837;DHT22;4957;51.412;6.724;2023-05-07T06:37:24;17.60;99.90
9837;DHT22;4957;51.412;6.724;2023-05-07T06:39:50;17.60;99.90
9837;DHT22;4957;51.412;6.724;2023-05-07T06:42:16;17.70;99.90
9837;DHT22;4957;51.412;6.724;2023-05-07T06:44:41;17.70;99.90
9837;DHT22;4957;51.412;6.724;2023-05-07T06:47:07;17.70;99.90
9837;DHT22;4957;51.412;6.724;2023-05-07T06:49:33;17.70;99.90
9837;DHT22;4957;51.412;6.724;2023-05-07T06:51:59;17.70;99.90
9837;DHT22;4957;51.412;6.724;2023-05-07T06:54:24;17.70;99.90
9837;DHT22;4957;51.412;6.724;2023-05-07T06:56:50;17.80;99.90
9837;DHT22;4957;51.412;6.724;2023-05-07T06:59:16;17.80;99.90
9837;DHT22;4957;51.412;6.724;2023-05-07T07:01:41;17.90;99.90
9837;DHT22;4957;51.412;6.724;2023-05-07T07:04:07;17.90;99.90
9837;DHT22;4957;51.412;6.724;2023-05-07T07:06:33;17.90;99.90
9837;DHT22;4957;51.412;6.724;2023-05-07T07:08:59;17.90;99.90
9837;DHT22;4957;51.412;6.724;2023-05-07T07:11:25;18.00;99.90
9837;DHT22;4957;51.412;6.724;2023-05-07T07:13:52;18.00;99.90
9837;DHT22;4957;51.412;6.724;2023-05-07T07:16:20;18.10;99.90
9837;DHT22;4957;51.412;6.724;2023-05-07T07:18:46;18.10;99.90
9837;DHT22;4957;51.412;6.724;2023-05-07T07:21:12;18.20;99.90
9837;DHT22;4957;51.412;6.724;2023-05-07T07:23:37;18.20;99.90
9837;DHT22;4957;51.412;6.724;2023-05-07T07:26:03;18.30;99.90
9837;DHT22;4957;51.412;6.724;2023-05-07T07:28:29;18.30;99.90
9837;DHT22;4957;51.412;6.724;2023-05-07T07:30:55;18.40;99.90
9837;DHT22;4957;51.412;6.724;2023-05-07T07:33:20;18.40;99.90
9837;DHT22;4957;51.412;6.724;2023-05-07T07:35:46;18.50;99.90
9837;DHT22;4957;51.412;6.724;2023-05-07T07:38:12;18.60;99.90
9837;DHT22;4957;51.412;6.724;2023-05-07T07:40:37;18.60;99.90
9837;DHT22;4957;51.412;6.724;2023-05-07T07:43:03;18.70;99.90
9837;DHT22;4957;51.412;6.724;2023-05-07T07:45:28;18.80;99.90
9837;DHT22;4957;51.412;6.724;2023-05-07T07:47:54;18.90;99.90
9837;DHT22;4957;51.412;6.724;2023-05-07T07:50:20;18.90;99.90
9837;DHT22;4957;51.412;6.724;2023-05-07T07:52:46;19.00;99.90
9837;DHT22;4957;51.412;6.724;2023-05-07T07:55:11;19.10;99.90
9837;DHT22;4957;51.412;6.724;2023-05-07T07:57:37;19.30;99.90
9837;DHT22;4957;51.412;6.724;2023-05-07T08:00:03;19.40;99.90
9837;DHT22;4957;51.412;6.724;2023-05-07T08:02:29;19.40;99.90
9837;DHT22;4957;51.412;6.724;2023-05-07T08:04:55;19.50;99.90
9837;DHT22;4957;51.412;6.724;2023-05-07T08:07:21;19.70;99.90
9837;DHT22;4957;51.412;6.724;2023-05-07T08:09:48;19.90;99.80
9837;DHT22;4957;51.412;6.724;2023-05-07T08:12:14;20.00;99.60
9837;DHT22;4957;51.412;6.724;2023-05-07T08:14:40;20.10;99.30
9837;DHT22;4957;51.412;6.724;2023-05-07T08:17:06;20.20;99.20
9837;DHT22;4957;51.412;6.724;2023-05-07T08:19:32;20.40;98.50
9837;DHT22;4957;51.412;6.724;2023-05-07T08:21:58;20.50;98.10
9837;DHT22;4957;51.412;6.724;2023-05-07T08:24:23;20.70;98.00
9837;DHT22;4957;51.412;6.724;2023-05-07T08:26:49;20.80;97.50
9837;DHT22;4957;51.412;6.724;2023-05-07T08:29:15;20.90;97.10
9837;DHT22;4957;51.412;6.724;2023-05-07T08:31:41;21.00;96.70
9837;DHT22;4957;51.412;6.724;2023-05-07T08:34:07;21.10;96.30
9837;DHT22;4957;51.412;6.724;2023-05-07T08:36:33;21.20;96.10
9837;DHT22;4957;51.412;6.724;2023-05-07T08:38:59;21.30;95.90
9837;DHT22;4957;51.412;6.724;2023-05-07T08:41:26;21.40;95.40
9837;DHT22;4957;51.412;6.724;2023-05-07T08:43:52;21.60;95.20
9837;DHT22;4957;51.412;6.724;2023-05-07T08:46:20;21.70;95.20
9837;DHT22;4957;51.412;6.724;2023-05-07T08:48:50;21.70;94.80
9837;DHT22;4957;51.412;6.724;2023-05-07T08:51:18;21.90;94.40
9837;DHT22;4957;51.412;6.724;2023-05-07T08:53:45;22.10;94.30
9837;DHT22;4957;51.412;6.724;2023-05-07T08:56:11;22.20;93.70
9837;DHT22;4957;51.412;6.724;2023-05-07T08:58:37;22.40;93.40
9837;DHT22;4957;51.412;6.724;2023-05-07T09:01:13;22.60;93.20
9837;DHT22;4957;51.412;6.724;2023-05-07T09:03:39;22.70;92.90
9837;DHT22;4957;51.412;6.724;2023-05-07T09:06:05;22.90;93.00
9837;DHT22;4957;51.412;6.724;2023-05-07T09:08:33;23.10;92.30
9837;DHT22;4957;51.412;6.724;2023-05-07T09:10:59;23.40;91.90
9837;DHT22;4957;51.412;6.724;2023-05-07T09:13:27;23.50;91.50
9837;DHT22;4957;51.412;6.724;2023-05-07T09:15:53;23.70;91.00
9837;DHT22;4957;51.412;6.724;2023-05-07T09:18:18;23.90;90.60
9837;DHT22;4957;51.412;6.724;2023-05-07T09:20:44;24.10;90.30
9837;DHT22;4957;51.412;6.724;2023-05-07T09:23:10;24.30;89.50
9837;DHT22;4957;51.412;6.724;2023-05-07T09:25:36;24.50;88.20
9837;DHT22;4957;51.412;6.724;2023-05-07T09:28:03;24.90;86.90
9837;DHT22;4957;51.412;6.724;2023-05-07T09:30:31;25.00;85.60
9837;DHT22;4957;51.412;6.724;2023-05-07T09:33:01;25.20;84.10
9837;DHT22;4957;51.412;6.724;2023-05-07T09:35:28;25.40;83.30
9837;DHT22;4957;51.412;6.724;2023-05-07T09:37:55;25.50;81.70
9837;DHT22;4957;51.412;6.724;2023-05-07T09:40:26;25.70;79.60
9837;DHT22;4957;51.412;6.724;2023-05-07T09:42:53;25.80;78.50
9837;DHT22;4957;51.412;6.724;2023-05-07T09:45:28;26.00;77.60
9837;DHT22;4957;51.412;6.724;2023-05-07T09:47:58;26.10;76.50
9837;DHT22;4957;51.412;6.724;2023-05-07T09:50:28;26.10;75.90
9837;DHT22;4957;51.412;6.724;2023-05-07T09:52:55;26.20;75.00
9837;DHT22;4957;51.412;6.724;2023-05-07T09:55:21;26.30;75.10
9837;DHT22;4957;51.412;6.724;2023-05-07T09:57:50;26.40;74.30
9837;DHT22;4957;51.412;6.724;2023-05-07T10:00:20;26.50;71.70
9837;DHT22;4957;51.412;6.724;2023-05-07T10:02:49;26.70;71.20
9837;DHT22;4957;51.412;6.724;2023-05-07T10:05:18;26.70;70.80
9837;DHT22;4957;51.412;6.724;2023-05-07T10:07:44;26.80;70.70
9837;DHT22;4957;51.412;6.724;2023-05-07T10:10:10;26.90;70.10
9837;DHT22;4957;51.412;6.724;2023-05-07T10:12:36;27.00;69.90
9837;DHT22;4957;51.412;6.724;2023-05-07T10:15:10;27.10;69.40
9837;DHT22;4957;51.412;6.724;2023-05-07T10:17:37;27.30;67.90
9837;DHT22;4957;51.412;6.724;2023-05-07T10:20:04;27.40;67.00
9837;DHT22;4957;51.412;6.724;2023-05-07T10:22:36;27.50;65.50
9837;DHT22;4957;51.412;6.724;2023-05-07T10:25:03;27.60;65.20
9837;DHT22;4957;51.412;6.724;2023-05-07T10:27:32;27.60;64.30
9837;DHT22;4957;51.412;6.724;2023-05-07T10:30:06;27.70;63.80
9837;DHT22;4957;51.412;6.724;2023-05-07T10:32:38;27.80;63.30
9837;DHT22;4957;51.412;6.724;2023-05-07T10:35:09;27.90;64.10
9837;DHT22;4957;51.412;6.724;2023-05-07T10:37:35;27.90;62.90
9837;DHT22;4957;51.412;6.724;2023-05-07T10:40:02;28.00;62.40
9837;DHT22;4957;51.412;6.724;2023-05-07T10:42:27;28.10;63.00
9837;DHT22;4957;51.412;6.724;2023-05-07T10:44:53;28.20;63.40
9837;DHT22;4957;51.412;6.724;2023-05-07T10:47:19;28.30;62.00
9837;DHT22;4957;51.412;6.724;2023-05-07T10:52:23;28.50;61.00
9837;DHT22;4957;51.412;6.724;2023-05-07T10:57:45;28.80;59.20
9837;DHT22;4957;51.412;6.724;2023-05-07T11:05:29;29.20;56.70
9837;DHT22;4957;51.412;6.724;2023-05-07T11:08:03;29.30;55.60
9837;DHT22;4957;51.412;6.724;2023-05-07T11:13:14;29.50;54.30
9837;DHT22;4957;51.412;6.724;2023-05-07T11:15:42;29.50;54.90
9837;DHT22;4957;51.412;6.724;2023-05-07T11:18:10;29.60;55.00
9837;DHT22;4957;51.412;6.724;2023-05-07T11:20:56;29.70;54.40
9837;DHT22;4957;51.412;6.724;2023-05-07T11:26:09;30.00;53.00
9837;DHT22;4957;51.412;6.724;2023-05-07T11:28:42;30.00;52.60
9837;DHT22;4957;51.412;6.724;2023-05-07T11:31:09;30.00;52.50
9837;DHT22;4957;51.412;6.724;2023-05-07T11:33:38;29.90;52.50
9837;DHT22;4957;51.412;6.724;2023-05-07T11:36:04;30.00;52.30
9837;DHT22;4957;51.412;6.724;2023-05-07T11:38:35;29.90;51.40
9837;DHT22;4957;51.412;6.724;2023-05-07T11:41:02;29.90;50.90
9837;DHT22;4957;51.412;6.724;2023-05-07T11:43:30;29.90;50.20
9837;DHT22;4957;51.412;6.724;2023-05-07T11:46:11;30.00;49.90
9837;DHT22;4957;51.412;6.724;2023-05-07T11:48:37;30.00;49.70
9837;DHT22;4957;51.412;6.724;2023-05-07T11:51:05;30.00;49.40
9837;DHT22;4957;51.412;6.724;2023-05-07T11:53:39;30.00;48.80
9837;DHT22;4957;51.412;6.724;2023-05-07T11:56:09;30.00;48.90
9837;DHT22;4957;51.412;6.724;2023-05-07T11:58:35;29.90;48.90
9837;DHT22;4957;51.412;6.724;2023-05-07T12:01:01;29.90;49.30
9837;DHT22;4957;51.412;6.724;2023-05-07T12:03:27;29.70;49.70
9837;DHT22;4957;51.412;6.724;2023-05-07T12:05:53;29.70;49.50
9837;DHT22;4957;51.412;6.724;2023-05-07T12:08:20;29.60;49.50
9837;DHT22;4957;51.412;6.724;2023-05-07T12:10:50;29.60;49.50
9837;DHT22;4957;51.412;6.724;2023-05-07T12:13:17;29.50;49.50
9837;DHT22;4957;51.412;6.724;2023-05-07T12:15:43;29.40;49.80
9837;DHT22;4957;51.412;6.724;2023-05-07T12:18:10;29.40;50.00
9837;DHT22;4957;51.412;6.724;2023-05-07T12:20:36;29.30;50.00
9837;DHT22;4957;51.412;6.724;2023-05-07T12:23:03;29.30;49.80
9837;DHT22;4957;51.412;6.724;2023-05-07T12:25:34;29.20;49.90
9837;DHT22;4957;51.412;6.724;2023-05-07T12:28:01;29.20;50.00
9837;DHT22;4957;51.412;6.724;2023-05-07T12:30:26;29.20;50.10
9837;DHT22;4957;51.412;6.724;2023-05-07T12:32:53;29.10;50.40
9837;DHT22;4957;51.412;6.724;2023-05-07T12:35:29;29.00;50.30
9837;DHT22;4957;51.412;6.724;2023-05-07T12:37:59;29.00;50.60
9837;DHT22;4957;51.412;6.724;2023-05-07T12:40:39;29.00;51.00
9837;DHT22;4957;51.412;6.724;2023-05-07T12:43:06;28.90;50.90
9837;DHT22;4957;51.412;6.724;2023-05-07T12:45:37;28.90;51.30
9837;DHT22;4957;51.412;6.724;2023-05-07T12:48:04;28.90;51.10
9837;DHT22;4957;51.412;6.724;2023-05-07T12:50:33;28.80;51.00
9837;DHT22;4957;51.412;6.724;2023-05-07T12:52:59;28.80;50.50
9837;DHT22;4957;51.412;6.724;2023-05-07T12:55:25;28.70;50.10
9837;DHT22;4957;51.412;6.724;2023-05-07T12:57:52;28.70;50.30
9837;DHT22;4957;51.412;6.724;2023-05-07T13:00:38;28.70;50.40
9837;DHT22;4957;51.412;6.724;2023-05-07T13:03:04;28.70;50.10
9837;DHT22;4957;51.412;6.724;2023-05-07T13:05:31;28.60;50.80
9837;DHT22;4957;51.412;6.724;2023-05-07T13:07:57;28.60;51.00
9837;DHT22;4957;51.412;6.724;2023-05-07T13:10:23;28.50;51.00
9837;DHT22;4957;51.412;6.724;2023-05-07T13:12:50;28.50;51.00
9837;DHT22;4957;51.412;6.724;2023-05-07T13:15:16;28.40;50.80
9837;DHT22;4957;51.412;6.724;2023-05-07T13:17:42;28.40;51.00
9837;DHT22;4957;51.412;6.724;2023-05-07T13:20:09;28.40;50.70
9837;DHT22;4957;51.412;6.724;2023-05-07T13:22:35;28.30;50.60
9837;DHT22;4957;51.412;6.724;2023-05-07T13:25:01;28.30;51.20
9837;DHT22;4957;51.412;6.724;2023-05-07T13:27:27;28.20;50.60
9837;DHT22;4957;51.412;6.724;2023-05-07T13:29:52;28.20;50.70
9837;DHT22;4957;51.412;6.724;2023-05-07T13:32:18;28.20;50.80
9837;DHT22;4957;51.412;6.724;2023-05-07T13:34:44;28.10;50.70
9837;DHT22;4957;51.412;6.724;2023-05-07T13:37:10;28.10;50.40
9837;DHT22;4957;51.412;6.724;2023-05-07T13:39:36;28.00;51.00
9837;DHT22;4957;51.412;6.724;2023-05-07T13:42:02;27.90;51.10
9837;DHT22;4957;51.412;6.724;2023-05-07T13:44:27;27.80;51.30
9837;DHT22;4957;51.412;6.724;2023-05-07T13:46:53;27.80;51.50
9837;DHT22;4957;51.412;6.724;2023-05-07T13:49:19;27.60;51.60
9837;DHT22;4957;51.412;6.724;2023-05-07T13:51:44;27.60;51.90
9837;DHT22;4957;51.412;6.724;2023-05-07T13:54:10;27.40;52.30
9837;DHT22;4957;51.412;6.724;2023-05-07T13:56:37;27.30;52.30
9837;DHT22;4957;51.412;6.724;2023-05-07T13:59:02;27.20;52.80
9837;DHT22;4957;51.412;6.724;2023-05-07T14:01:28;27.10;54.00
9837;DHT22;4957;51.412;6.724;2023-05-07T14:03:55;27.00;55.60
9837;DHT22;4957;51.412;6.724;2023-05-07T14:06:20;26.80;57.20
9837;DHT22;4957;51.412;6.724;2023-05-07T14:08:47;26.60;58.90
9837;DHT22;4957;51.412;6.724;2023-05-07T14:11:12;26.50;60.30
9837;DHT22;4957;51.412;6.724;2023-05-07T14:13:38;26.30;61.90
9837;DHT22;4957;51.412;6.724;2023-05-07T14:16:04;26.10;63.10
9837;DHT22;4957;51.412;6.724;2023-05-07T14:18:30;25.90;63.40
9837;DHT22;4957;51.412;6.724;2023-05-07T14:20:56;25.70;64.00
9837;DHT22;4957;51.412;6.724;2023-05-07T14:23:21;25.40;64.10
9837;DHT22;4957;51.412;6.724;2023-05-07T14:25:52;25.20;64.70
9837;DHT22;4957;51.412;6.724;2023-05-07T14:28:18;25.00;65.40
9837;DHT22;4957;51.412;6.724;2023-05-07T14:30:44;24.70;66.10
9837;DHT22;4957;51.412;6.724;2023-05-07T14:33:10;24.50;66.00
9837;DHT22;4957;51.412;6.724;2023-05-07T14:35:36;24.40;66.60
9837;DHT22;4957;51.412;6.724;2023-05-07T14:38:02;24.40;66.80
9837;DHT22;4957;51.412;6.724;2023-05-07T14:40:27;24.30;66.90
9837;DHT22;4957;51.412;6.724;2023-05-07T14:42:53;24.20;67.10
9837;DHT22;4957;51.412;6.724;2023-05-07T14:45:21;24.20;67.10
9837;DHT22;4957;51.412;6.724;2023-05-07T14:47:47;24.10;67.00
9837;DHT22;4957;51.412;6.724;2023-05-07T14:50:12;24.00;67.20
9837;DHT22;4957;51.412;6.724;2023-05-07T14:52:38;23.90;67.70
9837;DHT22;4957;51.412;6.724;2023-05-07T14:55:04;23.80;68.10
9837;DHT22;4957;51.412;6.724;2023-05-07T14:57:30;23.60;68.60
9837;DHT22;4957;51.412;6.724;2023-05-07T15:00:00;23.50;70.00
9837;DHT22;4957;51.412;6.724;2023-05-07T15:02:26;23.30;70.00
9837;DHT22;4957;51.412;6.724;2023-05-07T15:04:52;23.20;71.90
9837;DHT22;4957;51.412;6.724;2023-05-07T15:07:18;23.10;71.60
9837;DHT22;4957;51.412;6.724;2023-05-07T15:09:44;23.00;71.70
9837;DHT22;4957;51.412;6.724;2023-05-07T15:12:10;22.90;71.80
9837;DHT22;4957;51.412;6.724;2023-05-07T15:14:37;22.80;72.70
9837;DHT22;4957;51.412;6.724;2023-05-07T15:17:03;22.70;73.40
9837;DHT22;4957;51.412;6.724;2023-05-07T15:19:29;22.60;72.80
9837;DHT22;4957;51.412;6.724;2023-05-07T15:21:59;22.60;72.60
9837;DHT22;4957;51.412;6.724;2023-05-07T15:24:28;22.60;72.40
9837;DHT22;4957;51.412;6.724;2023-05-07T15:26:54;22.60;72.60
9837;DHT22;4957;51.412;6.724;2023-05-07T15:29:20;22.60;73.40
9837;DHT22;4957;51.412;6.724;2023-05-07T15:31:46;22.60;73.40
9837;DHT22;4957;51.412;6.724;2023-05-07T15:34:11;22.60;73.40
9837;DHT22;4957;51.412;6.724;2023-05-07T15:36:37;22.60;73.70
9837;DHT22;4957;51.412;6.724;2023-05-07T15:39:03;22.60;73.60
9837;DHT22;4957;51.412;6.724;2023-05-07T15:41:29;22.60;73.70
9837;DHT22;4957;51.412;6.724;2023-05-07T15:43:55;22.70;73.80
9837;DHT22;4957;51.412;6.724;2023-05-07T15:46:22;22.80;73.60
9837;DHT22;4957;51.412;6.724;2023-05-07T15:48:49;22.80;74.00
9837;DHT22;4957;51.412;6.724;2023-05-07T15:51:15;22.80;73.60
9837;DHT22;4957;51.412;6.724;2023-05-07T15:53:42;22.80;74.10
9837;DHT22;4957;51.412;6.724;2023-05-07T15:56:08;22.90;76.40
9837;DHT22;4957;51.412;6.724;2023-05-07T15:58:34;22.90;76.60
9837;DHT22;4957;51.412;6.724;2023-05-07T16:01:00;22.90;77.50
9837;DHT22;4957;51.412;6.724;2023-05-07T16:03:27;22.90;76.30
9837;DHT22;4957;51.412;6.724;2023-05-07T16:05:54;22.90;76.20
9837;DHT22;4957;51.412;6.724;2023-05-07T16:08:22;22.90;76.20
9837;DHT22;4957;51.412;6.724;2023-05-07T16:10:48;22.90;77.70
9837;DHT22;4957;51.412;6.724;2023-05-07T16:13:14;22.90;77.60
9837;DHT22;4957;51.412;6.724;2023-05-07T16:15:44;22.90;77.10